This is the latest recevied weather packets stored in our database for station/object KC9EGS. If no packets are shown the sender has not sent any weather packets the latest 10 day(s).
| Time | Temp. | Humidity | Pressure | Rain* | Wind** | Luminosity | Snow |
|---|---|---|---|---|---|---|---|
| 1777937115 | 13.89° C | 37% | 992.3 hPa | 0 mm | - | - | - |
| 1777936521 | 14.44° C | 35% | 992.3 hPa | 0 mm | - | - | - |
| 1777936215 | 14.44° C | 34% | 992 hPa | 0 mm | - | - | - |
| 1777935921 | 15° C | 34% | 992 hPa | 0 mm | - | - | - |
| 1777935317 | 15° C | 35% | 991.7 hPa | 0 mm | - | - | - |
| 1777934721 | 15° C | 35% | 991.7 hPa | 0 mm | - | - | - |
| 1777934415 | 15° C | 35% | 991.4 hPa | 0 mm | - | - | - |
| 1777934121 | 15° C | 35% | 991.4 hPa | 0 mm | - | - | - |
| 1777933515 | 15.56° C | 34% | 990.8 hPa | 0 mm | - | - | - |
| 1777932921 | 16.11° C | 28% | 990.8 hPa | 0 mm | - | - | - |
| 1777932615 | 16.11° C | 29% | 990.5 hPa | 0 mm | - | - | - |
| 1777932320 | 16.11° C | 32% | 990.5 hPa | 0 mm | - | - | - |
| 1777931715 | 16.11° C | 31% | 990.3 hPa | 0 mm | - | - | - |
| 1777931122 | 15.56° C | 35% | 990.3 hPa | 0 mm | - | - | - |
| 1777930816 | 15.56° C | 35% | 990.2 hPa | 0 mm | - | - | - |
| 1777929915 | 16.11° C | 36% | 990.1 hPa | 0 mm | - | - | - |
| 1777929016 | 16.11° C | 38% | 990 hPa | 0 mm | - | - | - |
| 1777928721 | 16.11° C | 37% | 990 hPa | 0 mm | - | - | - |
| 1777928115 | 16.67° C | 35% | 989.8 hPa | 0 mm | - | - | - |
| 1777927520 | 17.22° C | 35% | 989.8 hPa | 0 mm | - | - | - |
| 1777927216 | 16.67° C | 35% | 989.7 hPa | 0 mm | - | - | - |
| 1777926922 | 16.67° C | 35% | 989.7 hPa | 0 mm | - | - | - |
| 1777926316 | 16.67° C | 34% | 989.7 hPa | 0 mm | - | - | - |
| 1777925720 | 16.67° C | 33% | 989.7 hPa | 0 mm | - | - | - |
| 1777925415 | 16.67° C | 35% | 989.7 hPa | 0 mm | - | - | - |
* Rain latest hour (hover to see other rain measurements)
** Current wind speed in m/s (hover to see current wind gust speed)